Nearby METAR Reports

 

MWCR - Owen Roberts, Grand Cayman
Distance from station: NNE 3mi, 4km
Updated: 23/06/2017 22:00
NOT Current
Few Clouds
Few Clouds
 Wind from E
Wind: E 9 mph , 15 km/h
Temperature: 82°F , 28°C
Heat Index: 91°F , 33°C
Dew Point: 79°F , 26°C
Humidity: 89%
Barometer: 1014 hPa
Clouds: Few Clouds
Visibility: 6 miles , 10 km
Cloud details: Few Clouds 2400 ft
2017/06/24 03:00 MWCR 240300Z 09008KT 9999 FEW024 28/26 Q1014
MWCB - Gerrard Smith, Cayman Brac
Distance from station: ENE 102mi, 164km
Updated: 23/06/2017 19:00
NOT Current
Few Clouds
Few Clouds
 Wind from E
Wind: E 8 mph , 13 km/h
Temperature: 84°F , 29°C
Heat Index: 92°F , 33°C
Dew Point: 75°F , 24°C
Humidity: 74%
Barometer: 1013 hPa
Clouds: Few Clouds
Visibility: 6 miles , 10 km
Cloud details: Few Clouds 2200 ft
2017/06/24 00:00 MWCB 240000Z 09007KT 9999 FEW022 29/24 Q1013
 
MUCL - Cayo Largo D Sur, Cuba
Distance from station: N 164mi, 264km
Updated: 24/06/2017 01:05

 Wind from E
Wind: E 5 mph , 7 km/h
Temperature: 82°F , 28°C
Heat Index: 89°F , 32°C
Dew Point: 75°F , 24°C
Humidity: 79%
Barometer: 1015 hPa
2017/06/24 06:05 MUCL 240605Z AUTO 08004KT 28/24 Q1015
MUCF - Cienfuegos(Civ/M, Cuba
Distance from station: NNE 208mi, 335km
Updated: 24/06/2017 00:59

 Wind from E
Wind: E 5 mph , 7 km/h
Temperature: 77°F , 25°C
Dew Point: 73°F , 23°C
Humidity: 89%
Barometer: 1015 hPa
2017/06/24 05:59 MUCF 240559Z AUTO 08004KT 25/23 Q1015
 
MKJS - Sangster/Montego Bay, Jamaica
Distance from station: ESE 233mi, 375km
Updated: 24/06/2017 01:00
Few Clouds
Few Clouds
 Wind from varies
Wind: varies 2 mph , 4 km/h
Temperature: 81°F , 27°C
Heat Index: 87°F , 31°C
Dew Point: 75°F , 24°C
Humidity: 84%
Barometer: 1013 hPa
Clouds: Few Clouds
Visibility: 6 miles , 10 km
Cloud details: Few Clouds 2200 ft
2017/06/24 06:00 MKJS 240600Z VRB02KT 9999 FEW022 27/24 Q1013
MUSC - Santa Clara, Cuba
Distance from station: NNE 242mi, 389km
Updated: 24/06/2017 00:53
Clear
Clear
 Wind from E
Wind: E 5 mph , 7 km/h
Temperature: 75°F , 24°C
Dew Point: 70°F , 21°C
Humidity: 83%
Barometer: 1017 hPa
Clouds: Clear
Visibility: 6 miles , 9 km
2017/06/24 05:53 MUSC 240553Z 10004KT 9000 SKC 24/21 Q1017
 
MUVR - Varadero, Cuba
Distance from station: N 260mi, 419km
Updated: 24/06/2017 00:53
Partly cloudy
Partly cloudy
 Wind from calm
Wind: Calm
Temperature: 77°F , 25°C
Dew Point: 72°F , 22°C
Humidity: 83%
Barometer: 1016 hPa
Clouds: Partly cloudy
Visibility: 5 miles , 8 km
2017/06/24 05:53 MUVR 240553Z 00000KT 8000 NSC 25/22 Q1016
MUHA - Havana/Jose Mar, Cuba
Distance from station: NNW 264mi, 425km
Updated: 24/06/2017 00:55
Partly cloudy
Partly cloudy
 Wind from varies
Wind: varies 1 mph , 2 km/h
Temperature: 77°F , 25°C
Dew Point: 73°F , 23°C
Humidity: 89%
Barometer: 1015 hPa
Clouds: Partly cloudy
Visibility: 6 miles , 9 km
Cloud details: Partly cloudy 2000 ft
2017/06/24 05:55 MUHA 240555Z VRB01KT 9000 SCT020 25/23 Q1015
 
MUCM - Camaguey/Iganci, Cuba
Distance from station: NE 273mi, 439km
Updated: 24/06/2017 00:50
Partly cloudy
Partly cloudy
 Wind from E
Wind: E 8 mph , 13 km/h
Temperature: 75°F , 24°C
Dew Point: 72°F , 22°C
Humidity: 89%
Barometer: 1016 hPa
Clouds: Partly cloudy
Visibility: 6 miles , 9 km
2017/06/24 05:50 MUCM 240550Z 08007KT 9000 NSC 24/22 Q1016
MUMZ - Manzanillo, Cuba
Distance from station: ENE 287mi, 462km
Updated: 11/10/2016 09:50
NOT Current
Partly cloudy
Partly cloudy
 Wind from ENE
Wind: ENE 12 mph , 19 km/h
Temperature: 84°F , 29°C
Heat Index: 89°F , 32°C
Dew Point: 72°F , 22°C
Humidity: 66%
Barometer: 1014 hPa
Clouds: Partly cloudy
Visibility: 6 miles , 9 km
Cloud details: Partly cloudy 2000 ft
2016/10/11 14:50 MUMZ 111450Z 07010KT 9000 SCT020 29/22 Q1014
 
MUCC - Canagua, Cuba
Distance from station: NE 296mi, 476km
Updated: 24/06/2017 01:05

 Wind from ESE
Wind: ESE 8 mph , 13 km/h
Temperature: 81°F , 27°C
Heat Index: 86°F , 30°C
Dew Point: 73°F , 23°C
Humidity: 79%
Barometer: 1015 hPa
2017/06/24 06:05 MUCC 240605Z AUTO 11007KT 080V140 27/23 Q1015
MKJP - Kingston/Norman Manley, Jamaica
Distance from station: ESE 315mi, 507km
Updated: 24/06/2017 01:00
Few Clouds
Few Clouds
 Wind from W
Wind: W 3 mph , 6 km/h
Temperature: 79°F , 26°C
Dew Point: 75°F , 24°C
Humidity: 89%
Barometer: 1013 hPa
Clouds: Few Clouds
Visibility: 6 miles , 10 km
Cloud details: Few Clouds 2200 ft
2017/06/24 06:00 MKJP 240600Z 27003KT 9999 FEW022 26/24 Q1013
 
MHPL - Puerto Lempira, Honduras
Distance from station: SSW 318mi, 513km
Updated: 23/06/2017 17:00
NOT Current
Mostly cloudy
Mostly cloudy
 Wind from calm
Wind: Calm
Temperature: 88°F , 31°C
Heat Index: 100°F , 38°C
Dew Point: 77°F , 25°C
Humidity: 70%
Barometer: 1009 hPa
Clouds: Mostly cloudy
Visibility: 6 miles , 10 km
Cloud details: Mostly cloudy 2800 ft
2017/06/23 22:00 MHPL 232200Z 00000KT 9999 BKN028TCU 31/25 Q1009 TCU ALL HZ
MUHG - Holguin (civ/Mil, Cuba
Distance from station: ENE 345mi, 555km
Updated: 24/06/2017 00:50
Clear
Clear
 Wind from E
Wind: E 6 mph , 9 km/h
Temperature: 77°F , 25°C
Dew Point: 73°F , 23°C
Humidity: 89%
Barometer: 1015 hPa
Clouds: Clear
Visibility: 6 miles , 9 km
2017/06/24 05:50 MUHG 240550Z 09005KT 9000 SKC 25/23 Q1015